Time;durP1;ratioP1;P1;durP2;ratioP2;P2;SDS_P1;SDS_P2;PMS_P1;PMS_P2;Temp;Humidity;BMP_temperature;BMP_pressure;BME280_temperature;BME280_humidity;BME280_pressure;Samples;Min_cycle;Max_cycle;Signal;HPM_P1;HPM_P2
2022/09/12 00:01:58;;;;;;;1999.90;999.90;;;19.60;99.90;;;;;;5054903;28;20111;-72
2022/09/12 00:04:24;;;;;;;1999.90;999.90;;;19.60;99.90;;;;;;5055322;28;20105;-80
2022/09/12 00:06:49;;;;;;;1999.90;999.90;;;19.50;99.90;;;;;;5055086;28;20078;-72
2022/09/12 00:09:15;;;;;;;1999.90;999.90;;;19.50;99.90;;;;;;5055257;28;20559;-72
2022/09/12 00:11:43;;;;;;;1999.90;999.90;;;19.50;99.90;;;;;;5054788;28;20033;-81
2022/09/12 00:14:11;;;;;;;1999.90;999.90;;;19.50;99.90;;;;;;5054690;28;20032;-80
2022/09/12 00:16:38;;;;;;;1999.90;999.90;;;19.40;99.90;;;;;;5054633;28;20464;-80
2022/09/12 00:19:05;;;;;;;1999.90;999.90;;;19.50;99.90;;;;;;5048106;28;20384;-72
2022/09/12 00:21:32;;;;;;;1999.90;999.90;;;19.40;99.90;;;;;;5034798;28;20136;-78
2022/09/12 00:23:57;;;;;;;1999.90;999.90;;;19.40;99.90;;;;;;5034807;28;20025;-72
2022/09/12 00:26:23;;;;;;;1999.90;999.90;;;19.40;99.90;;;;;;5034893;28;20091;-79
2022/09/12 00:28:49;;;;;;;1999.90;999.90;;;19.40;99.90;;;;;;5034331;28;20049;-80
2022/09/12 00:31:22;;;;;;;1999.90;999.90;;;19.40;99.90;;;;;;5034358;28;20473;-72
2022/09/12 00:33:48;;;;;;;1999.90;999.90;;;19.40;99.90;;;;;;5034007;28;20489;-80
2022/09/12 00:36:20;;;;;;;1999.90;999.90;;;19.40;99.90;;;;;;5034570;28;20075;-72
2022/09/12 00:38:47;;;;;;;1999.90;999.90;;;19.40;99.90;;;;;;5042708;28;20100;-72
2022/09/12 00:41:19;;;;;;;1999.90;999.90;;;19.40;99.90;;;;;;5054657;28;20101;-80
2022/09/12 00:43:54;;;;;;;1999.90;999.90;;;19.40;99.90;;;;;;5054352;28;20028;-72
2022/09/12 00:46:42;;;;;;;1999.90;999.90;;;19.30;99.90;;;;;;5052674;28;20361;-80
2022/09/12 00:49:25;;;;;;;1999.90;999.90;;;19.40;99.90;;;;;;5054442;28;20040;-80
2022/09/12 00:51:58;;;;;;;1999.90;999.90;;;19.30;99.90;;;;;;5053518;28;20437;-80
2022/09/12 00:54:31;;;;;;;1999.90;999.90;;;19.30;99.90;;;;;;5054283;28;20029;-79
2022/09/12 00:57:00;;;;;;;1999.90;999.90;;;19.20;99.90;;;;;;5053977;28;20392;-72
2022/09/12 00:59:34;;;;;;;1999.90;999.90;;;19.20;99.90;;;;;;5053914;28;20090;-72
2022/09/12 01:01:59;;;;;;;1999.90;999.90;;;19.20;99.90;;;;;;5053539;28;20039;-80
2022/09/12 01:04:27;;;;;;;1999.90;999.90;;;19.10;99.90;;;;;;5054201;28;20469;-79
2022/09/12 01:06:56;;;;;;;1999.90;999.90;;;19.10;99.90;;;;;;5053718;28;20039;-80
2022/09/12 01:09:24;;;;;;;1999.90;999.90;;;19.20;99.90;;;;;;5054102;28;20476;-80
2022/09/12 01:11:52;;;;;;;1999.90;999.90;;;19.20;99.90;;;;;;5053810;28;20036;-71
2022/09/12 01:14:19;;;;;;;1999.90;999.90;;;19.20;99.90;;;;;;5052904;28;20025;-80
2022/09/12 01:16:47;;;;;;;1999.90;999.90;;;19.20;99.90;;;;;;5053245;28;20075;-71
2022/09/12 01:19:31;;;;;;;1999.90;999.90;;;19.20;99.90;;;;;;5045336;28;20048;-80
2022/09/12 01:22:15;;;;;;;1999.90;999.90;;;19.20;99.90;;;;;;5033807;28;20396;-80
2022/09/12 01:24:55;;;;;;;1999.90;999.90;;;19.20;99.90;;;;;;5033504;28;20560;-72
2022/09/12 01:28:02;;;;;;;1999.90;999.90;;;19.20;99.90;;;;;;5033800;28;20033;-71
2022/09/12 01:30:44;;;;;;;1999.90;999.90;;;19.10;99.90;;;;;;5042737;28;20201;-79
2022/09/12 01:33:30;;;;;;;1999.90;999.90;;;19.10;99.90;;;;;;5033573;28;20079;-80
2022/09/12 01:36:33;;;;;;;1999.90;999.90;;;19.00;99.90;;;;;;5033624;28;20029;-72
2022/09/12 01:39:19;;;;;;;1999.90;999.90;;;18.90;99.90;;;;;;5042719;28;20032;-72
2022/09/12 01:41:49;;;;;;;1999.90;999.90;;;18.80;99.90;;;;;;5053749;28;20017;-71
2022/09/12 01:44:48;;;;;;;1999.90;999.90;;;18.80;99.90;;;;;;5053260;28;20546;-80
2022/09/12 01:47:22;;;;;;;1999.90;999.90;;;18.70;99.90;;;;;;5052675;28;20488;-72
2022/09/12 01:50:02;;;;;;;1999.90;999.90;;;18.70;99.90;;;;;;5053534;28;20103;-72
2022/09/12 01:52:46;;;;;;;1999.90;999.90;;;18.70;99.90;;;;;;5052222;28;20036;-72
2022/09/12 01:55:17;;;;;;;1999.90;999.90;;;18.70;99.90;;;;;;5053308;28;20041;-80
2022/09/12 01:57:49;;;;;;;1999.90;999.90;;;18.70;99.90;;;;;;5052914;28;20029;-80
2022/09/12 02:00:15;;;;;;;1999.90;999.90;;;18.80;99.90;;;;;;5052972;28;20017;-72
2022/09/12 02:03:01;;;;;;;1999.90;999.90;;;18.70;99.90;;;;;;5053123;28;20036;-71
2022/09/12 02:05:32;;;;;;;1999.90;999.90;;;18.80;99.90;;;;;;5053500;28;20345;-72
2022/09/12 02:08:00;;;;;;;1999.90;999.90;;;18.80;99.90;;;;;;5052837;28;20024;-79
2022/09/12 02:10:33;;;;;;;1999.90;999.90;;;18.80;99.90;;;;;;5052970;28;20029;-80
2022/09/12 02:13:21;;;;;;;1999.90;999.90;;;18.80;99.90;;;;;;5052624;28;20395;-79
2022/09/12 02:15:55;;;;;;;1999.90;999.90;;;18.80;99.90;;;;;;5052928;28;20111;-72
2022/09/12 02:18:20;;;;;;;1999.90;999.90;;;18.70;99.90;;;;;;5052541;28;20027;-72
2022/09/12 02:20:48;;;;;;;1999.90;999.90;;;18.70;99.90;;;;;;5032851;28;20025;-80
2022/09/12 02:23:21;;;;;;;1999.90;999.90;;;18.70;99.90;;;;;;5032649;28;20029;-71
2022/09/12 02:25:51;;;;;;;1999.90;999.90;;;18.70;99.90;;;;;;5033164;28;20109;-71
2022/09/12 02:28:22;;;;;;;1999.90;999.90;;;18.60;99.90;;;;;;5032448;28;20028;-72
2022/09/12 02:31:15;;;;;;;1999.90;999.90;;;18.60;99.90;;;;;;5031348;28;20032;-80
2022/09/12 02:34:12;;;;;;;1999.90;999.90;;;18.50;99.90;;;;;;5032693;28;20503;-80
2022/09/12 02:37:04;;;;;;;1999.90;999.90;;;18.50;99.90;;;;;;5032753;28;20024;-79
2022/09/12 02:39:30;;;;;;;1999.90;999.90;;;18.50;99.90;;;;;;5046938;28;20448;-79
2022/09/12 02:41:59;;;;;;;1999.90;999.90;;;18.40;99.90;;;;;;5053110;28;20025;-72
2022/09/12 02:44:27;;;;;;;1999.90;999.90;;;18.40;99.90;;;;;;5052523;28;20029;-72
2022/09/12 02:46:59;;;;;;;1999.90;999.90;;;18.50;99.90;;;;;;5052325;28;20021;-80
2022/09/12 02:49:25;;;;;;;1999.90;999.90;;;18.40;99.90;;;;;;5052804;28;20075;-80
2022/09/12 02:51:51;;;;;;;1999.90;999.90;;;18.50;99.90;;;;;;5052839;28;20029;-80
2022/09/12 02:54:17;;;;;;;1999.90;999.90;;;18.60;99.90;;;;;;5051831;28;20021;-80
2022/09/12 02:56:44;;;;;;;1999.90;999.90;;;18.70;99.90;;;;;;5053938;28;20112;-71
2022/09/12 02:59:14;;;;;;;1999.90;999.90;;;18.80;99.90;;;;;;5056015;28;20032;-80
2022/09/12 03:01:43;;;;;;;1999.90;999.90;;;18.80;99.90;;;;;;5055682;28;20067;-71
2022/09/12 03:04:18;;;;;;;1999.90;999.90;;;18.80;99.90;;;;;;5056505;28;20040;-79
2022/09/12 03:07:02;;;;;;;1999.90;999.90;;;18.80;99.90;;;;;;5056197;28;20017;-80
2022/09/12 03:10:02;;;;;;;1999.90;999.90;;;18.70;99.90;;;;;;5055962;28;20079;-71
2022/09/12 03:12:43;;;;;;;1999.90;999.90;;;18.70;99.90;;;;;;5055679;28;20017;-71
2022/09/12 03:15:50;;;;;;;1999.90;999.90;;;18.70;99.90;;;;;;5056065;28;20025;-80
2022/09/12 03:18:42;;;;;;;1999.90;999.90;;;18.70;99.90;;;;;;5055945;28;20029;-80
2022/09/12 03:21:32;;;;;;;1999.90;999.90;;;18.70;99.90;;;;;;5036016;28;20029;-71
2022/09/12 03:24:10;;;;;;;1999.90;999.90;;;18.60;99.90;;;;;;5035673;28;20030;-79
2022/09/12 03:27:00;;;;;;;1999.90;999.90;;;18.60;99.90;;;;;;5035935;28;20041;-72
2022/09/12 03:29:26;;;;;;;1999.90;999.90;;;18.50;99.90;;;;;;5035549;28;20065;-80
2022/09/12 03:31:57;;;;;;;1999.90;999.90;;;18.40;99.90;;;;;;5035491;28;20039;-71
2022/09/12 03:34:24;;;;;;;1999.90;999.90;;;18.40;99.90;;;;;;5035826;28;20052;-72
2022/09/12 03:36:51;;;;;;;1999.90;999.90;;;18.40;99.90;;;;;;5035833;28;20035;-80
2022/09/12 03:39:17;;;;;;;1999.90;999.90;;;18.30;99.90;;;;;;5047962;28;20096;-71
2022/09/12 03:41:43;;;;;;;1999.90;999.90;;;18.30;99.90;;;;;;5055908;28;20132;-80
2022/09/12 03:44:08;;;;;;;1999.90;999.90;;;18.30;99.90;;;;;;5054148;28;20025;-72
2022/09/12 03:46:34;;;;;;;1999.90;999.90;;;18.20;99.90;;;;;;5055262;28;20040;-79
2022/09/12 03:49:00;;;;;;;1999.90;999.90;;;18.20;99.90;;;;;;5055232;28;20044;-71
2022/09/12 03:51:26;;;;;;;1999.90;999.90;;;18.20;99.90;;;;;;5055664;28;20029;-80
2022/09/12 03:53:52;;;;;;;1999.90;999.90;;;18.20;99.90;;;;;;5055573;28;20022;-80
2022/09/12 03:56:18;;;;;;;1999.90;999.90;;;18.20;99.90;;;;;;5054424;28;20059;-79
2022/09/12 03:58:44;;;;;;;1999.90;999.90;;;18.20;99.90;;;;;;5054960;28;20055;-72
2022/09/12 04:01:14;;;;;;;1999.90;999.90;;;18.10;99.90;;;;;;5055189;28;20021;-71
2022/09/12 04:03:45;;;;;;;1999.90;999.90;;;18.10;99.90;;;;;;5055222;28;20031;-79
2022/09/12 04:06:13;;;;;;;1999.90;999.90;;;18.10;99.90;;;;;;5055640;28;20052;-71
2022/09/12 04:08:39;;;;;;;1999.90;999.90;;;18.00;99.90;;;;;;5054429;28;20032;-79
2022/09/12 04:11:13;;;;;;;1999.90;999.90;;;18.00;99.90;;;;;;5054709;28;20029;-79
2022/09/12 04:13:40;;;;;;;1999.90;999.90;;;18.00;99.90;;;;;;5054440;28;20071;-71
2022/09/12 04:16:06;;;;;;;1999.90;999.90;;;18.00;99.90;;;;;;5053620;28;20099;-72
2022/09/12 04:18:33;;;;;;;1999.90;999.90;;;18.00;99.90;;;;;;5053111;28;20017;-80
2022/09/12 04:21:04;;;;;;;1999.90;999.90;;;18.00;99.90;;;;;;5034870;28;20544;-71
2022/09/12 04:23:29;;;;;;;1999.90;999.90;;;18.00;99.90;;;;;;5034756;28;20028;-80
2022/09/12 04:25:56;;;;;;;1999.90;999.90;;;18.00;99.90;;;;;;5034741;28;20029;-71
2022/09/12 04:28:23;;;;;;;1999.90;999.90;;;17.90;99.90;;;;;;5034690;28;20516;-72
2022/09/12 04:30:49;;;;;;;1999.90;999.90;;;17.90;99.90;;;;;;5034336;28;20073;-72
2022/09/12 04:33:15;;;;;;;1999.90;999.90;;;17.90;99.90;;;;;;5034948;28;20017;-79
2022/09/12 04:35:41;;;;;;;1999.90;999.90;;;17.80;99.90;;;;;;5034336;28;20036;-79
2022/09/12 04:38:08;;;;;;;1999.90;999.90;;;17.90;99.90;;;;;;5037231;28;20018;-71
2022/09/12 04:40:34;;;;;;;1999.90;999.90;;;17.90;99.90;;;;;;5054473;28;20124;-71
2022/09/12 04:43:00;;;;;;;1999.90;999.90;;;17.90;99.90;;;;;;5054477;28;20107;-79
2022/09/12 04:45:26;;;;;;;1999.90;999.90;;;17.80;99.90;;;;;;5053958;28;20112;-79
2022/09/12 04:47:51;;;;;;;1999.90;999.90;;;17.80;99.90;;;;;;5054456;28;20103;-72
2022/09/12 04:50:18;;;;;;;1999.90;999.90;;;17.80;99.90;;;;;;5054253;28;20072;-80
2022/09/12 04:52:51;;;;;;;1999.90;999.90;;;17.70;99.90;;;;;;5054455;28;20026;-72
2022/09/12 04:55:18;;;;;;;1999.90;999.90;;;17.70;99.90;;;;;;5053020;28;20796;-80
2022/09/12 04:57:43;;;;;;;1999.90;999.90;;;17.70;99.90;;;;;;5051754;28;20050;-79
2022/09/12 05:00:13;;;;;;;1999.90;999.90;;;17.70;99.90;;;;;;5053933;28;20487;-79
2022/09/12 05:02:40;;;;;;;1999.90;999.90;;;17.70;99.90;;;;;;5053344;28;20044;-79
2022/09/12 05:05:06;;;;;;;1999.90;999.90;;;17.70;99.90;;;;;;5054007;28;20032;-71
2022/09/12 05:07:32;;;;;;;1999.90;999.90;;;17.70;99.90;;;;;;5053652;28;20396;-80
2022/09/12 05:09:59;;;;;;;1999.90;999.90;;;17.70;99.90;;;;;;5053347;28;20024;-79
2022/09/12 05:12:25;;;;;;;1999.90;999.90;;;17.70;99.90;;;;;;5053287;28;20068;-79
2022/09/12 05:14:50;;;;;;;1999.90;999.90;;;17.80;99.90;;;;;;5054075;28;20053;-79
2022/09/12 05:17:16;;;;;;;1999.90;999.90;;;17.70;99.90;;;;;;5053159;28;20025;-79
2022/09/12 05:19:42;;;;;;;1999.90;999.90;;;17.70;99.90;;;;;;5041527;28;20021;-71
2022/09/12 05:22:08;;;;;;;1999.90;999.90;;;17.70;99.90;;;;;;5033456;28;20044;-79
2022/09/12 05:24:34;;;;;;;1999.90;999.90;;;17.80;99.90;;;;;;5033406;28;20067;-79
2022/09/12 05:27:00;;;;;;;1999.90;999.90;;;17.80;99.90;;;;;;5034482;28;20033;-79
2022/09/12 05:29:25;;;;;;;1999.90;999.90;;;17.80;99.90;;;;;;5052946;28;20044;-71
2022/09/12 05:31:51;;;;;;;1999.90;999.90;;;17.90;99.90;;;;;;5053097;28;20037;-71
2022/09/12 05:34:18;;;;;;;1999.90;999.90;;;17.90;99.90;;;;;;5053335;28;20021;-71
2022/09/12 05:36:44;;;;;;;1999.90;999.90;;;18.00;99.90;;;;;;5038920;28;20396;-81
2022/09/12 05:39:09;;;;;;;1999.90;999.90;;;18.10;99.90;;;;;;5044061;28;20017;-81
2022/09/12 05:41:35;;;;;;;1999.90;999.90;;;18.10;99.90;;;;;;5052848;28;20108;-82
2022/09/12 05:44:03;;;;;;;1999.90;999.90;;;18.10;99.90;;;;;;5053225;28;20116;-73
2022/09/12 05:46:34;;;;;;;1999.90;999.90;;;18.20;99.90;;;;;;5052590;28;20036;-72
2022/09/12 05:49:04;;;;;;;1999.90;999.90;;;18.20;99.90;;;;;;5052585;28;20060;-81
2022/09/12 05:51:40;;;;;;;1999.90;999.90;;;18.30;99.90;;;;;;5052822;28;20029;-82
2022/09/12 05:54:07;;;;;;;1999.90;999.90;;;18.30;99.90;;;;;;5052854;28;20028;-82
2022/09/12 05:56:40;;;;;;;1999.90;999.90;;;18.30;99.90;;;;;;5051992;28;20009;-82
2022/09/12 05:59:11;;;;;;;1999.90;999.90;;;18.30;99.90;;;;;;5052382;28;20024;-73
2022/09/12 06:01:36;;;;;;;1999.90;999.90;;;18.30;99.90;;;;;;5052193;28;20033;-82
2022/09/12 06:04:05;;;;;;;1999.90;999.90;;;18.30;99.90;;;;;;5052673;28;20403;-82
2022/09/12 06:06:33;;;;;;;1999.90;999.90;;;18.30;99.90;;;;;;5052444;28;20029;-82
2022/09/12 06:09:02;;;;;;;1999.90;999.90;;;18.30;99.90;;;;;;5052838;28;20407;-73
2022/09/12 06:11:30;;;;;;;1999.90;999.90;;;18.20;99.90;;;;;;5050387;28;20563;-73
2022/09/12 06:13:57;;;;;;;1999.90;999.90;;;18.20;99.90;;;;;;5050303;28;20033;-82
2022/09/12 06:16:25;;;;;;;1999.90;999.90;;;18.30;99.90;;;;;;5050655;28;20028;-81
2022/09/12 06:18:53;;;;;;;1999.90;999.90;;;18.30;99.90;;;;;;5047865;28;20100;-82
2022/09/12 06:21:20;;;;;;;1999.90;999.90;;;18.40;99.90;;;;;;5032633;28;20125;-82
2022/09/12 06:23:46;;;;;;;1999.90;999.90;;;18.40;99.90;;;;;;5032460;28;20029;-74
2022/09/12 06:26:14;;;;;;;1999.90;999.90;;;18.40;99.90;;;;;;5032693;28;20076;-74
2022/09/12 06:28:43;;;;;;;1999.90;999.90;;;18.50;99.90;;;;;;5039366;28;20056;-73
2022/09/12 06:31:11;;;;;;;1999.90;999.90;;;18.60;99.90;;;;;;5052256;28;20025;-83
2022/09/12 06:33:40;;;;;;;1999.90;999.90;;;18.70;99.90;;;;;;5052185;28;20103;-74
2022/09/12 06:36:11;;;;;;;1999.90;999.90;;;18.90;99.90;;;;;;5047829;28;20403;-74
2022/09/12 06:38:38;;;;;;;1999.90;999.90;;;19.00;99.90;;;;;;5048571;28;20025;-74
2022/09/12 06:41:06;;;;;;;1999.90;999.90;;;19.20;99.90;;;;;;5056294;28;20075;-83
2022/09/12 06:43:32;;;;;;;1999.90;999.90;;;19.30;99.90;;;;;;5056580;28;20021;-83
2022/09/12 06:45:58;;;;;;;1999.90;999.90;;;19.40;99.90;;;;;;5055521;28;20017;-82
2022/09/12 06:48:24;;;;;;;1999.90;999.90;;;19.50;99.90;;;;;;5054873;28;20476;-81
2022/09/12 06:51:08;;;;;;;1999.90;999.90;;;19.50;99.90;;;;;;5055583;28;20017;-74
2022/09/12 06:53:35;;;;;;;1999.90;999.90;;;19.60;99.90;;;;;;5055195;28;20083;-83
2022/09/12 06:56:06;;;;;;;1999.90;999.90;;;19.70;99.90;;;;;;5050530;28;20032;-73
2022/09/12 06:58:32;;;;;;;1999.90;999.90;;;19.90;99.90;;;;;;5050462;28;20128;-83
2022/09/12 07:01:07;;;;;;;1999.90;999.90;;;20.00;99.90;;;;;;5053423;28;20467;-74
2022/09/12 07:03:34;;;;;;;1999.90;999.90;;;20.20;99.90;;;;;;5054532;28;20025;-74
2022/09/12 07:06:20;;;;;;;1999.90;999.90;;;20.30;99.90;;;;;;5053999;28;20017;-82
2022/09/12 07:08:46;;;;;;;1999.90;999.90;;;20.40;99.90;;;;;;5049787;28;20024;-83
2022/09/12 07:11:25;;;;;;;1999.90;999.90;;;20.50;99.90;;;;;;5049030;28;20071;-83
2022/09/12 07:13:53;;;;;;;1999.90;999.90;;;20.60;99.90;;;;;;5050589;28;20037;-74
2022/09/12 07:16:18;;;;;;;1999.90;999.90;;;20.70;99.90;;;;;;5053699;28;20095;-74
2022/09/12 07:18:49;;;;;;;1999.90;999.90;;;20.80;99.90;;;;;;5054544;28;20096;-83
2022/09/12 07:21:15;;;;;;;1999.90;999.90;;;20.90;99.90;;;;;;5054128;28;20032;-83
2022/09/12 07:23:41;;;;;;;1999.90;999.90;;;21.10;99.90;;;;;;5054130;28;20040;-74
2022/09/12 07:26:11;;;;;;;1999.90;999.90;;;21.20;99.90;;;;;;5051910;28;20031;-74
2022/09/12 07:28:36;;;;;;;1999.90;999.90;;;21.30;99.90;;;;;;5054638;28;20529;-74
2022/09/12 07:31:14;;;;;;;1999.90;999.90;;;21.40;99.90;;;;;;5054462;28;20032;-74
2022/09/12 07:33:41;;;;;;;1999.90;999.90;;;21.70;99.90;;;;;;5034694;28;20025;-77
2022/09/12 07:36:15;;;;;;;1999.90;999.90;;;21.90;99.90;;;;;;5053270;28;20442;-84
2022/09/12 07:38:42;;;;;;;1999.90;999.90;;;22.10;99.90;;;;;;5052470;28;20025;-82
2022/09/12 07:41:13;;;;;;;1999.90;999.90;;;22.20;99.90;;;;;;5038823;28;20024;-83
2022/09/12 07:43:40;;;;;;;1999.90;999.90;;;22.50;99.70;;;;;;5052088;28;20029;-74
2022/09/12 07:46:06;;;;;;;1999.90;999.90;;;22.90;99.00;;;;;;5053895;28;20028;-84
2022/09/12 07:48:32;;;;;;;1999.90;999.90;;;24.30;97.90;;;;;;5054021;28;20025;-75
2022/09/12 07:51:03;;;;;;;1999.90;999.90;;;27.00;95.10;;;;;;5053949;28;20029;-84
2022/09/12 07:53:37;;;;;;;1999.90;999.90;;;28.60;93.30;;;;;;5054345;28;20029;-75
2022/09/12 07:56:04;;;;;;;1999.90;999.90;;;29.50;92.30;;;;;;5047906;28;20053;-75
2022/09/12 07:58:31;;;;;;;1999.90;999.90;;;30.20;91.30;;;;;;5053860;28;20407;-73
2022/09/12 08:01:04;;;;;;;1999.90;999.90;;;30.70;90.40;;;;;;5049350;28;20503;-82
2022/09/12 08:03:30;;;;;;;1999.90;999.90;;;31.30;90.30;;;;;;5042876;28;20124;-72
2022/09/12 08:06:02;;;;;;;1999.90;999.90;;;31.80;88.90;;;;;;5038536;28;20126;-73
2022/09/12 08:08:28;;;;;;;1999.90;999.90;;;31.60;89.60;;;;;;5034168;28;20032;-73
2022/09/12 08:10:58;;;;;;;1999.90;999.90;;;31.40;88.70;;;;;;5041190;28;20104;-82
2022/09/12 08:13:26;;;;;;;1999.90;999.90;;;31.90;88.80;;;;;;5051606;28;20017;-73
2022/09/12 08:15:56;;;;;;;1999.90;999.90;;;32.00;88.40;;;;;;5053357;28;20100;-73
2022/09/12 08:18:22;;;;;;;1999.90;999.90;;;32.50;87.70;;;;;;5053549;28;20020;-84
2022/09/12 08:20:47;;;;;;;1999.90;999.90;;;33.00;87.00;;;;;;5053421;28;20021;-73
2022/09/12 08:23:13;;;;;;;1999.90;999.90;;;33.10;86.60;;;;;;5053576;28;20033;-73
2022/09/12 08:25:38;;;;;;;1999.90;999.90;;;32.80;86.70;;;;;;5053721;28;20107;-74
2022/09/12 08:28:04;;;;;;;1999.90;999.90;;;33.00;86.90;;;;;;5055007;28;20044;-80
2022/09/12 08:30:30;;;;;;;1999.90;999.90;;;32.40;86.90;;;;;;5052822;28;20086;-83
2022/09/12 08:32:56;;;;;;;1999.90;999.90;;;32.50;86.50;;;;;;5051921;28;20025;-73
2022/09/12 08:35:21;;;;;;;1999.90;999.90;;;30.80;89.00;;;;;;5052928;28;20147;-73
2022/09/12 08:37:47;;;;;;;1999.90;999.90;;;31.40;89.20;;;;;;5052041;28;20021;-73
2022/09/12 08:40:17;;;;;;;1999.90;999.90;;;32.20;88.00;;;;;;5050094;28;20013;-84
2022/09/12 08:42:52;;;;;;;1999.90;999.90;;;33.50;86.70;;;;;;5049039;28;20025;-84
2022/09/12 08:45:41;;;;;;;1999.90;999.90;;;33.00;86.90;;;;;;5051453;28;20545;-74
2022/09/12 08:48:10;;;;;;;1999.90;999.90;;;33.60;86.10;;;;;;5053109;28;20163;-73
2022/09/12 08:50:35;;;;;;;1999.90;999.90;;;34.00;85.20;;;;;;5052751;28;20097;-74
2022/09/12 08:53:09;;;;;;;1999.90;999.90;;;34.00;85.60;;;;;;5053496;28;20040;-82
2022/09/12 08:55:44;;;;;;;1999.90;999.90;;;33.90;84.90;;;;;;5041122;28;20461;-82
2022/09/12 08:58:19;;;;;;;1999.90;999.90;;;33.70;85.40;;;;;;5053171;28;20028;-73
2022/09/12 09:01:06;;;;;;;1999.90;999.90;;;33.80;85.50;;;;;;5038469;28;20041;-83
2022/09/12 09:04:09;;;;;;;1999.90;999.90;;;34.10;84.90;;;;;;5037309;28;20092;-74
2022/09/12 09:06:54;;;;;;;1999.90;999.90;;;33.80;85.00;;;;;;5043285;28;20021;-85
2022/09/12 09:09:47;;;;;;;1999.90;999.90;;;34.10;85.20;;;;;;5044464;28;20035;-73
2022/09/12 09:12:31;;;;;;;1999.90;999.90;;;33.50;85.60;;;;;;5049186;28;20106;-74
2022/09/12 09:15:40;;;;;;;1999.90;999.90;;;33.90;85.50;;;;;;5053079;28;20028;-82
2022/09/12 09:18:22;;;;;;;1999.90;999.90;;;33.80;85.50;;;;;;5045083;28;20392;-74
2022/09/12 09:20:56;;;;;;;1999.90;999.90;;;34.10;85.60;;;;;;5052595;28;20024;-85
2022/09/12 09:23:32;;;;;;;1999.90;999.90;;;33.90;85.00;;;;;;5052081;28;20082;-85
2022/09/12 09:26:06;;;;;;;1999.90;999.90;;;34.40;85.40;;;;;;5052555;28;20032;-75
2022/09/12 09:28:38;;;;;;;1999.90;999.90;;;34.70;84.60;;;;;;5038364;28;20049;-75
2022/09/12 09:31:05;;;;;;;;;;;34.90;84.20;;;;;;5052921;28;20035;-74
2022/09/12 09:33:33;;;;;;;1999.90;999.90;;;33.70;85.50;;;;;;5052633;28;19908;-84
2022/09/12 09:36:14;;;;;;;1999.90;999.90;;;33.30;85.50;;;;;;5052294;28;20110;-84
2022/09/12 09:38:49;;;;;;;1999.90;999.90;;;32.50;87.70;;;;;;5052247;28;20028;-75
2022/09/12 09:41:44;;;;;;;1999.90;999.90;;;31.90;88.20;;;;;;5049911;28;20029;-75
2022/09/12 09:44:10;;;;;;;1999.90;999.90;;;31.60;89.30;;;;;;5044190;28;20025;-84
2022/09/12 09:46:36;;;;;;;1999.90;999.90;;;31.50;89.50;;;;;;5051600;28;20025;-83
2022/09/12 09:49:02;;;;;;;1999.90;999.90;;;31.40;89.20;;;;;;5052198;28;20439;-74
2022/09/12 09:51:36;;;;;;;1999.90;999.90;;;31.20;90.00;;;;;;5052373;28;20443;-74
2022/09/12 09:54:11;;;;;;;1999.90;999.90;;;30.80;90.10;;;;;;5031303;28;20014;-74
2022/09/12 09:56:40;;;;;;;1999.90;999.90;;;30.00;90.70;;;;;;5047910;28;20025;-81
2022/09/12 09:59:27;;;;;;;1999.90;999.90;;;29.30;91.30;;;;;;5051933;28;20040;-84
2022/09/12 10:01:54;;;;;;;1999.90;999.90;;;29.10;91.70;;;;;;5051579;28;20107;-84
2022/09/12 10:04:25;;;;;;;1999.90;999.90;;;28.90;91.90;;;;;;5052375;28;20036;-76
2022/09/12 10:06:58;;;;;;;1999.90;999.90;;;29.20;91.90;;;;;;5051367;28;20035;-84
2022/09/12 10:09:33;;;;;;;1999.90;999.90;;;29.70;91.50;;;;;;5050780;28;20113;-85
2022/09/12 10:12:04;;;;;;;1999.90;999.90;;;30.20;91.30;;;;;;5049454;28;20029;-83
2022/09/12 10:14:38;;;;;;;1999.90;999.90;;;30.10;91.10;;;;;;5051113;28;20063;-85
2022/09/12 10:17:43;;;;;;;1999.90;999.90;;;29.80;91.60;;;;;;5048103;28;20175;-75
2022/09/12 10:20:29;;;;;;;1999.90;999.90;;;29.80;91.50;;;;;;5031480;28;20051;-75
2022/09/12 10:22:56;;;;;;;1999.90;999.90;;;30.20;91.20;;;;;;5041976;28;20395;-76
2022/09/12 10:25:24;;;;;;;1999.90;999.90;;;30.70;91.00;;;;;;5051593;28;20044;-84
2022/09/12 10:27:59;;;;;;;1999.90;999.90;;;30.90;90.90;;;;;;5049116;28;20025;-76
2022/09/12 10:30:27;;;;;;;1999.90;999.90;;;31.10;91.20;;;;;;5019123;28;20072;-76
2022/09/12 10:33:03;;;;;;;1999.90;999.90;;;31.10;91.00;;;;;;5028745;28;20026;-76
2022/09/12 10:35:41;;;;;;;1999.90;999.90;;;31.10;90.80;;;;;;5025204;28;20094;-84
2022/09/12 10:38:22;;;;;;;1999.90;999.90;;;30.90;91.00;;;;;;5031219;28;20021;-84
2022/09/12 10:40:56;;;;;;;1999.90;999.90;;;30.80;90.90;;;;;;5032375;28;20104;-79
2022/09/12 10:43:41;;;;;;;1999.90;999.90;;;30.50;91.10;;;;;;5024603;28;20067;-76
2022/09/12 10:46:21;;;;;;;1999.90;999.90;;;30.50;91.20;;;;;;5028423;28;20030;-84
2022/09/12 10:49:10;;;;;;;1999.90;999.90;;;30.60;91.30;;;;;;5032208;28;20116;-83
2022/09/12 10:51:36;;;;;;;1999.90;999.90;;;30.60;91.20;;;;;;5030453;28;20052;-84
2022/09/12 10:54:04;;;;;;;1999.90;999.90;;;30.60;91.20;;;;;;5032404;28;20029;-75
2022/09/12 10:56:38;;;;;;;1999.90;999.90;;;30.70;91.50;;;;;;5026140;28;20020;-76
2022/09/12 10:59:41;;;;;;;1999.90;999.90;;;31.00;91.20;;;;;;5027698;28;20026;-77
2022/09/12 11:02:27;;;;;;;1999.90;999.90;;;30.90;91.20;;;;;;5018911;28;20033;-83
2022/09/12 11:05:20;;;;;;;1999.90;999.90;;;30.80;91.40;;;;;;5025228;28;20032;-75
2022/09/12 11:07:54;;;;;;;;;;;30.50;91.50;;;;;;5029064;28;20021;-75
2022/09/12 11:10:40;;;;;;;1999.90;999.90;;;30.30;91.50;;;;;;5030530;28;20265;-75
2022/09/12 11:13:27;;;;;;;1999.90;999.90;;;30.20;91.70;;;;;;5025905;28;20030;-84
2022/09/12 11:16:10;;;;;;;1999.90;999.90;;;30.30;91.60;;;;;;5028621;28;20018;-84
2022/09/12 11:19:04;;;;;;;1999.90;999.90;;;30.40;91.50;;;;;;5029864;28;20408;-75
2022/09/12 11:22:04;;;;;;;1999.90;999.90;;;30.50;91.50;;;;;;5026784;28;20163;-75
2022/09/12 11:24:38;;;;;;;1999.90;999.90;;;30.70;91.50;;;;;;5025945;28;20028;-84
2022/09/12 11:27:25;;;;;;;1999.90;999.90;;;30.90;91.40;;;;;;5030561;28;20040;-79
2022/09/12 11:30:07;;;;;;;1999.90;999.90;;;31.00;91.40;;;;;;5045892;28;20140;-84
2022/09/12 11:33:13;;;;;;;1999.90;999.90;;;31.30;91.20;;;;;;5046168;28;20439;-76
2022/09/12 11:35:50;;;;;;;1999.90;999.90;;;31.50;90.90;;;;;;5045442;28;20133;-75
2022/09/12 11:38:36;;;;;;;1999.90;999.90;;;31.80;90.90;;;;;;5054819;28;20059;-76
2022/09/12 11:41:06;;;;;;;1999.90;999.90;;;32.30;90.40;;;;;;5049349;28;20037;-76
2022/09/12 11:43:54;;;;;;;1999.90;999.90;;;32.70;90.20;;;;;;5053382;28;20395;-75
2022/09/12 11:46:22;;;;;;;1999.90;999.90;;;32.50;90.30;;;;;;5053323;28;20021;-84
2022/09/12 11:48:57;;;;;;;1999.90;999.90;;;32.20;90.60;;;;;;5054453;28;20021;-76
2022/09/12 11:51:38;;;;;;;1999.90;999.90;;;32.40;90.50;;;;;;5046029;28;20033;-74
2022/09/12 11:54:19;;;;;;;1999.90;999.90;;;32.90;90.50;;;;;;5054034;28;20048;-83
2022/09/12 11:56:46;;;;;;;1999.90;999.90;;;33.20;90.20;;;;;;5052470;28;20479;-83
2022/09/12 11:59:29;;;;;;;1999.90;999.90;;;33.00;90.30;;;;;;5042957;28;20104;-83
2022/09/12 12:01:58;;;;;;;1999.90;999.90;;;33.00;90.50;;;;;;5046827;28;20037;-75
2022/09/12 12:04:34;;;;;;;1999.90;999.90;;;32.90;90.70;;;;;;5050916;28;20025;-75
2022/09/12 12:07:09;;;;;;;1999.90;999.90;;;33.20;90.30;;;;;;5053044;28;20565;-83
2022/09/12 12:09:44;;;;;;;1999.90;999.90;;;33.30;90.20;;;;;;5051473;28;20036;-75
2022/09/12 12:12:18;;;;;;;1999.90;999.90;;;33.40;90.20;;;;;;5047624;28;20033;-83
2022/09/12 12:14:46;;;;;;;1999.90;999.90;;;33.30;90.20;;;;;;5052994;28;20032;-83
2022/09/12 12:17:24;;;;;;;1999.90;999.90;;;33.30;90.30;;;;;;5045478;28;20082;-84
2022/09/12 12:20:02;;;;;;;1999.90;999.90;;;33.50;90.20;;;;;;5053320;28;20360;-76
2022/09/12 12:22:28;;;;;;;1999.90;999.90;;;33.50;90.10;;;;;;5053813;28;20082;-84
2022/09/12 12:25:12;;;;;;;1999.90;999.90;;;32.80;90.30;;;;;;5053504;28;20476;-83
2022/09/12 12:27:45;;;;;;;1999.90;999.90;;;32.50;90.70;;;;;;5052253;28;20039;-80
2022/09/12 12:30:29;;;;;;;1999.90;999.90;;;32.80;90.60;;;;;;5049537;28;20060;-76